sensor_id;sensor_type;location;lat;lon;timestamp;P1;durP1;ratioP1;P2;durP2;ratioP2
10633;SDS011;5365;51.640;8.106;2023-06-14T00:02:07;2.47;;;1.10;;
10633;SDS011;5365;51.640;8.106;2023-06-14T00:05:09;2.28;;;0.80;;
10633;SDS011;5365;51.640;8.106;2023-06-14T00:08:09;4.40;;;2.00;;
10633;SDS011;5365;51.640;8.106;2023-06-14T00:11:09;3.33;;;1.10;;
10633;SDS011;5365;51.640;8.106;2023-06-14T00:14:10;1.83;;;1.17;;
10633;SDS011;5365;51.640;8.106;2023-06-14T00:17:10;2.67;;;1.10;;
10633;SDS011;5365;51.640;8.106;2023-06-14T00:20:10;2.23;;;1.17;;
10633;SDS011;5365;51.640;8.106;2023-06-14T00:23:11;2.13;;;1.05;;
10633;SDS011;5365;51.640;8.106;2023-06-14T00:26:11;1.73;;;0.90;;
10633;SDS011;5365;51.640;8.106;2023-06-14T00:29:11;1.60;;;0.70;;
10633;SDS011;5365;51.640;8.106;2023-06-14T00:32:11;4.43;;;1.02;;
10633;SDS011;5365;51.640;8.106;2023-06-14T00:35:12;2.40;;;0.77;;
10633;SDS011;5365;51.640;8.106;2023-06-14T00:38:12;1.55;;;0.98;;
10633;SDS011;5365;51.640;8.106;2023-06-14T00:41:12;1.55;;;0.90;;
10633;SDS011;5365;51.640;8.106;2023-06-14T00:44:13;2.57;;;0.80;;
10633;SDS011;5365;51.640;8.106;2023-06-14T00:47:15;1.52;;;0.93;;
10633;SDS011;5365;51.640;8.106;2023-06-14T00:50:15;2.10;;;0.80;;
10633;SDS011;5365;51.640;8.106;2023-06-14T00:53:16;2.10;;;0.80;;
10633;SDS011;5365;51.640;8.106;2023-06-14T00:56:17;2.20;;;0.70;;
10633;SDS011;5365;51.640;8.106;2023-06-14T00:59:20;1.20;;;0.60;;
10633;SDS011;5365;51.640;8.106;2023-06-14T01:02:21;2.17;;;0.80;;
10633;SDS011;5365;51.640;8.106;2023-06-14T01:05:21;1.60;;;0.80;;
10633;SDS011;5365;51.640;8.106;2023-06-14T01:08:24;1.05;;;0.55;;
10633;SDS011;5365;51.640;8.106;2023-06-14T01:11:28;1.73;;;0.90;;
10633;SDS011;5365;51.640;8.106;2023-06-14T01:14:31;2.80;;;0.77;;
10633;SDS011;5365;51.640;8.106;2023-06-14T01:17:33;1.38;;;0.55;;
10633;SDS011;5365;51.640;8.106;2023-06-14T01:20:34;1.55;;;0.80;;
10633;SDS011;5365;51.640;8.106;2023-06-14T01:23:36;2.22;;;0.98;;
10633;SDS011;5365;51.640;8.106;2023-06-14T01:26:36;1.63;;;0.77;;
10633;SDS011;5365;51.640;8.106;2023-06-14T01:29:37;3.92;;;0.70;;
10633;SDS011;5365;51.640;8.106;2023-06-14T01:32:38;1.65;;;0.88;;
10633;SDS011;5365;51.640;8.106;2023-06-14T01:35:39;1.17;;;0.57;;
10633;SDS011;5365;51.640;8.106;2023-06-14T01:38:39;2.03;;;0.77;;
10633;SDS011;5365;51.640;8.106;2023-06-14T01:41:40;1.92;;;0.70;;
10633;SDS011;5365;51.640;8.106;2023-06-14T01:44:40;1.67;;;0.98;;
10633;SDS011;5365;51.640;8.106;2023-06-14T01:47:41;1.90;;;0.93;;
10633;SDS011;5365;51.640;8.106;2023-06-14T01:50:42;1.45;;;0.77;;
10633;SDS011;5365;51.640;8.106;2023-06-14T01:53:42;1.93;;;0.90;;
10633;SDS011;5365;51.640;8.106;2023-06-14T01:56:42;2.42;;;0.75;;
10633;SDS011;5365;51.640;8.106;2023-06-14T01:59:42;1.42;;;0.70;;
10633;SDS011;5365;51.640;8.106;2023-06-14T02:02:48;2.33;;;0.90;;
10633;SDS011;5365;51.640;8.106;2023-06-14T02:05:49;2.53;;;0.45;;
10633;SDS011;5365;51.640;8.106;2023-06-14T02:08:49;1.30;;;0.70;;
10633;SDS011;5365;51.640;8.106;2023-06-14T02:11:50;1.75;;;0.77;;
10633;SDS011;5365;51.640;8.106;2023-06-14T02:14:50;2.93;;;0.70;;
10633;SDS011;5365;51.640;8.106;2023-06-14T02:17:50;2.58;;;0.95;;
10633;SDS011;5365;51.640;8.106;2023-06-14T02:20:50;2.10;;;0.90;;
10633;SDS011;5365;51.640;8.106;2023-06-14T02:23:50;1.35;;;0.80;;
10633;SDS011;5365;51.640;8.106;2023-06-14T02:26:51;1.73;;;0.70;;
10633;SDS011;5365;51.640;8.106;2023-06-14T02:29:51;1.77;;;0.77;;
10633;SDS011;5365;51.640;8.106;2023-06-14T02:32:52;1.53;;;0.80;;
10633;SDS011;5365;51.640;8.106;2023-06-14T02:35:53;1.77;;;0.70;;
10633;SDS011;5365;51.640;8.106;2023-06-14T02:38:53;1.20;;;0.60;;
10633;SDS011;5365;51.640;8.106;2023-06-14T02:41:54;1.52;;;0.65;;
10633;SDS011;5365;51.640;8.106;2023-06-14T02:44:54;1.17;;;0.87;;
10633;SDS011;5365;51.640;8.106;2023-06-14T02:47:54;1.00;;;0.60;;
10633;SDS011;5365;51.640;8.106;2023-06-14T02:50:55;0.68;;;0.35;;
10633;SDS011;5365;51.640;8.106;2023-06-14T02:53:56;1.23;;;0.75;;
10633;SDS011;5365;51.640;8.106;2023-06-14T02:56:57;2.15;;;0.85;;
10633;SDS011;5365;51.640;8.106;2023-06-14T02:59:57;2.57;;;0.77;;
10633;SDS011;5365;51.640;8.106;2023-06-14T03:02:57;1.20;;;0.70;;
10633;SDS011;5365;51.640;8.106;2023-06-14T03:05:58;1.55;;;0.65;;
10633;SDS011;5365;51.640;8.106;2023-06-14T03:08:58;0.77;;;0.50;;
10633;SDS011;5365;51.640;8.106;2023-06-14T03:12:04;1.38;;;0.65;;
10633;SDS011;5365;51.640;8.106;2023-06-14T03:15:06;2.10;;;0.50;;
10633;SDS011;5365;51.640;8.106;2023-06-14T03:18:09;0.85;;;0.40;;
10633;SDS011;5365;51.640;8.106;2023-06-14T03:21:10;1.08;;;0.50;;
10633;SDS011;5365;51.640;8.106;2023-06-14T03:24:10;1.75;;;0.60;;
10633;SDS011;5365;51.640;8.106;2023-06-14T03:27:11;2.20;;;1.00;;
10633;SDS011;5365;51.640;8.106;2023-06-14T03:30:12;1.60;;;0.47;;
10633;SDS011;5365;51.640;8.106;2023-06-14T03:33:12;1.10;;;0.60;;
10633;SDS011;5365;51.640;8.106;2023-06-14T03:36:13;1.13;;;0.60;;
10633;SDS011;5365;51.640;8.106;2023-06-14T03:39:13;1.20;;;0.60;;
10633;SDS011;5365;51.640;8.106;2023-06-14T03:42:14;1.20;;;0.70;;
10633;SDS011;5365;51.640;8.106;2023-06-14T03:45:14;1.52;;;0.55;;
10633;SDS011;5365;51.640;8.106;2023-06-14T03:48:14;2.58;;;0.63;;
10633;SDS011;5365;51.640;8.106;2023-06-14T03:51:15;1.87;;;0.97;;
10633;SDS011;5365;51.640;8.106;2023-06-14T03:54:15;2.03;;;0.40;;
10633;SDS011;5365;51.640;8.106;2023-06-14T03:57:15;1.83;;;0.70;;
10633;SDS011;5365;51.640;8.106;2023-06-14T04:00:15;1.37;;;0.70;;
10633;SDS011;5365;51.640;8.106;2023-06-14T04:03:16;1.48;;;0.60;;
10633;SDS011;5365;51.640;8.106;2023-06-14T04:06:16;1.57;;;0.77;;
10633;SDS011;5365;51.640;8.106;2023-06-14T04:09:19;2.28;;;0.85;;
10633;SDS011;5365;51.640;8.106;2023-06-14T04:12:20;1.87;;;0.93;;
10633;SDS011;5365;51.640;8.106;2023-06-14T04:15:20;2.30;;;0.80;;
10633;SDS011;5365;51.640;8.106;2023-06-14T04:18:20;1.50;;;0.73;;
10633;SDS011;5365;51.640;8.106;2023-06-14T04:21:20;2.07;;;0.83;;
10633;SDS011;5365;51.640;8.106;2023-06-14T04:24:21;2.17;;;0.90;;
10633;SDS011;5365;51.640;8.106;2023-06-14T04:27:21;1.50;;;0.67;;
10633;SDS011;5365;51.640;8.106;2023-06-14T04:30:21;1.73;;;0.63;;
10633;SDS011;5365;51.640;8.106;2023-06-14T04:33:27;1.02;;;0.60;;
10633;SDS011;5365;51.640;8.106;2023-06-14T04:36:27;1.53;;;0.73;;
10633;SDS011;5365;51.640;8.106;2023-06-14T04:39:28;1.30;;;0.98;;
10633;SDS011;5365;51.640;8.106;2023-06-14T04:42:28;1.53;;;0.80;;
10633;SDS011;5365;51.640;8.106;2023-06-14T04:45:30;1.35;;;0.60;;
10633;SDS011;5365;51.640;8.106;2023-06-14T04:48:31;1.95;;;0.75;;
10633;SDS011;5365;51.640;8.106;2023-06-14T04:51:32;1.10;;;0.60;;
10633;SDS011;5365;51.640;8.106;2023-06-14T04:54:33;1.65;;;0.80;;
10633;SDS011;5365;51.640;8.106;2023-06-14T04:57:36;3.58;;;0.88;;
10633;SDS011;5365;51.640;8.106;2023-06-14T05:00:38;2.05;;;0.55;;
10633;SDS011;5365;51.640;8.106;2023-06-14T05:03:38;2.07;;;0.80;;
10633;SDS011;5365;51.640;8.106;2023-06-14T05:06:38;1.20;;;0.60;;
10633;SDS011;5365;51.640;8.106;2023-06-14T05:09:39;2.78;;;0.93;;
10633;SDS011;5365;51.640;8.106;2023-06-14T05:12:39;4.13;;;1.20;;
10633;SDS011;5365;51.640;8.106;2023-06-14T05:15:40;1.83;;;0.98;;
10633;SDS011;5365;51.640;8.106;2023-06-14T05:18:40;1.30;;;0.70;;
10633;SDS011;5365;51.640;8.106;2023-06-14T05:21:41;1.15;;;0.47;;
10633;SDS011;5365;51.640;8.106;2023-06-14T05:24:41;2.23;;;0.67;;
10633;SDS011;5365;51.640;8.106;2023-06-14T05:27:42;1.52;;;0.70;;
10633;SDS011;5365;51.640;8.106;2023-06-14T05:30:42;1.20;;;0.60;;
10633;SDS011;5365;51.640;8.106;2023-06-14T05:33:42;2.72;;;1.10;;
10633;SDS011;5365;51.640;8.106;2023-06-14T05:36:42;2.17;;;1.17;;
10633;SDS011;5365;51.640;8.106;2023-06-14T05:39:42;2.00;;;0.70;;
10633;SDS011;5365;51.640;8.106;2023-06-14T05:42:43;2.13;;;0.73;;
10633;SDS011;5365;51.640;8.106;2023-06-14T05:45:43;2.05;;;0.88;;
10633;SDS011;5365;51.640;8.106;2023-06-14T05:48:43;2.47;;;0.80;;
10633;SDS011;5365;51.640;8.106;2023-06-14T05:51:43;1.57;;;1.00;;
10633;SDS011;5365;51.640;8.106;2023-06-14T05:54:44;1.57;;;0.80;;
10633;SDS011;5365;51.640;8.106;2023-06-14T05:57:44;3.75;;;0.85;;
10633;SDS011;5365;51.640;8.106;2023-06-14T06:00:45;1.25;;;0.77;;
10633;SDS011;5365;51.640;8.106;2023-06-14T06:03:45;1.88;;;0.75;;
10633;SDS011;5365;51.640;8.106;2023-06-14T06:06:46;2.03;;;0.70;;
10633;SDS011;5365;51.640;8.106;2023-06-14T06:09:47;1.25;;;0.50;;
10633;SDS011;5365;51.640;8.106;2023-06-14T06:12:47;1.43;;;0.87;;
10633;SDS011;5365;51.640;8.106;2023-06-14T06:15:49;1.85;;;0.60;;
10633;SDS011;5365;51.640;8.106;2023-06-14T06:18:49;1.27;;;0.60;;
10633;SDS011;5365;51.640;8.106;2023-06-14T06:21:49;1.67;;;0.80;;
10633;SDS011;5365;51.640;8.106;2023-06-14T06:24:49;1.40;;;0.63;;
10633;SDS011;5365;51.640;8.106;2023-06-14T06:28:05;1.25;;;0.50;;
10633;SDS011;5365;51.640;8.106;2023-06-14T06:31:05;1.27;;;0.70;;
10633;SDS011;5365;51.640;8.106;2023-06-14T06:34:06;1.90;;;1.10;;
10633;SDS011;5365;51.640;8.106;2023-06-14T06:37:06;1.50;;;0.60;;
10633;SDS011;5365;51.640;8.106;2023-06-14T06:40:06;2.03;;;0.93;;
10633;SDS011;5365;51.640;8.106;2023-06-14T06:43:07;1.48;;;0.63;;
10633;SDS011;5365;51.640;8.106;2023-06-14T06:46:07;1.97;;;0.60;;
10633;SDS011;5365;51.640;8.106;2023-06-14T06:49:08;0.60;;;0.23;;
10633;SDS011;5365;51.640;8.106;2023-06-14T06:52:08;1.15;;;0.50;;
10633;SDS011;5365;51.640;8.106;2023-06-14T06:55:09;1.27;;;0.70;;
10633;SDS011;5365;51.640;8.106;2023-06-14T06:58:11;1.00;;;0.43;;
10633;SDS011;5365;51.640;8.106;2023-06-14T07:01:11;1.55;;;0.28;;
10633;SDS011;5365;51.640;8.106;2023-06-14T07:04:13;1.85;;;0.50;;
10633;SDS011;5365;51.640;8.106;2023-06-14T07:07:13;0.60;;;0.27;;
10633;SDS011;5365;51.640;8.106;2023-06-14T07:10:13;1.13;;;0.40;;
10633;SDS011;5365;51.640;8.106;2023-06-14T07:13:13;1.17;;;0.33;;
10633;SDS011;5365;51.640;8.106;2023-06-14T07:16:14;1.07;;;0.33;;
10633;SDS011;5365;51.640;8.106;2023-06-14T07:19:14;1.33;;;0.33;;
10633;SDS011;5365;51.640;8.106;2023-06-14T07:22:14;1.92;;;0.22;;
10633;SDS011;5365;51.640;8.106;2023-06-14T07:25:15;0.37;;;0.20;;
10633;SDS011;5365;51.640;8.106;2023-06-14T07:28:16;0.70;;;0.30;;
10633;SDS011;5365;51.640;8.106;2023-06-14T07:31:16;0.63;;;0.25;;
10633;SDS011;5365;51.640;8.106;2023-06-14T07:34:18;3.28;;;0.20;;
10633;SDS011;5365;51.640;8.106;2023-06-14T07:37:18;0.37;;;0.10;;
10633;SDS011;5365;51.640;8.106;2023-06-14T07:40:18;0.80;;;0.30;;
10633;SDS011;5365;51.640;8.106;2023-06-14T07:43:18;0.63;;;0.20;;
10633;SDS011;5365;51.640;8.106;2023-06-14T07:46:19;2.50;;;0.30;;
10633;SDS011;5365;51.640;8.106;2023-06-14T07:49:19;0.53;;;0.20;;
10633;SDS011;5365;51.640;8.106;2023-06-14T07:52:19;0.80;;;0.20;;
10633;SDS011;5365;51.640;8.106;2023-06-14T07:55:20;0.65;;;0.17;;
10633;SDS011;5365;51.640;8.106;2023-06-14T07:58:20;0.47;;;0.30;;
10633;SDS011;5365;51.640;8.106;2023-06-14T08:01:20;0.83;;;0.40;;
10633;SDS011;5365;51.640;8.106;2023-06-14T08:04:20;1.10;;;0.50;;
10633;SDS011;5365;51.640;8.106;2023-06-14T08:07:20;0.50;;;0.17;;
10633;SDS011;5365;51.640;8.106;2023-06-14T08:10:21;0.77;;;0.22;;
10633;SDS011;5365;51.640;8.106;2023-06-14T08:13:22;1.23;;;0.40;;
10633;SDS011;5365;51.640;8.106;2023-06-14T08:16:22;1.07;;;0.50;;
10633;SDS011;5365;51.640;8.106;2023-06-14T08:19:22;0.50;;;0.23;;
10633;SDS011;5365;51.640;8.106;2023-06-14T08:22:23;1.43;;;0.50;;
10633;SDS011;5365;51.640;8.106;2023-06-14T08:25:24;0.40;;;0.20;;
10633;SDS011;5365;51.640;8.106;2023-06-14T08:28:24;1.00;;;0.20;;
10633;SDS011;5365;51.640;8.106;2023-06-14T08:31:25;6.30;;;0.60;;
10633;SDS011;5365;51.640;8.106;2023-06-14T08:34:25;0.82;;;0.30;;
10633;SDS011;5365;51.640;8.106;2023-06-14T08:37:25;0.40;;;0.28;;
10633;SDS011;5365;51.640;8.106;2023-06-14T08:40:26;0.60;;;0.22;;
10633;SDS011;5365;51.640;8.106;2023-06-14T08:43:27;0.63;;;0.20;;
10633;SDS011;5365;51.640;8.106;2023-06-14T08:46:27;1.23;;;0.50;;
10633;SDS011;5365;51.640;8.106;2023-06-14T08:49:29;0.80;;;0.30;;
10633;SDS011;5365;51.640;8.106;2023-06-14T08:52:30;1.75;;;0.50;;
10633;SDS011;5365;51.640;8.106;2023-06-14T08:55:33;1.70;;;0.68;;
10633;SDS011;5365;51.640;8.106;2023-06-14T08:58:33;0.70;;;0.30;;
10633;SDS011;5365;51.640;8.106;2023-06-14T09:01:34;0.90;;;0.30;;
10633;SDS011;5365;51.640;8.106;2023-06-14T09:04:34;1.08;;;0.35;;
10633;SDS011;5365;51.640;8.106;2023-06-14T09:07:37;1.48;;;0.30;;
10633;SDS011;5365;51.640;8.106;2023-06-14T09:10:39;0.60;;;0.30;;
10633;SDS011;5365;51.640;8.106;2023-06-14T09:13:40;1.65;;;0.50;;
10633;SDS011;5365;51.640;8.106;2023-06-14T09:16:40;1.60;;;0.35;;
10633;SDS011;5365;51.640;8.106;2023-06-14T09:19:40;0.77;;;0.30;;
10633;SDS011;5365;51.640;8.106;2023-06-14T09:22:41;2.88;;;0.75;;
10633;SDS011;5365;51.640;8.106;2023-06-14T09:25:42;1.38;;;0.60;;
10633;SDS011;5365;51.640;8.106;2023-06-14T09:28:44;0.90;;;0.50;;
10633;SDS011;5365;51.640;8.106;2023-06-14T09:31:47;1.13;;;0.47;;
10633;SDS011;5365;51.640;8.106;2023-06-14T09:34:48;4.78;;;0.55;;
10633;SDS011;5365;51.640;8.106;2023-06-14T09:37:48;2.70;;;0.40;;
10633;SDS011;5365;51.640;8.106;2023-06-14T09:40:49;2.27;;;0.80;;
10633;SDS011;5365;51.640;8.106;2023-06-14T09:43:49;1.05;;;0.45;;
10633;SDS011;5365;51.640;8.106;2023-06-14T09:46:50;1.27;;;0.75;;
10633;SDS011;5365;51.640;8.106;2023-06-14T09:49:51;0.90;;;0.50;;
10633;SDS011;5365;51.640;8.106;2023-06-14T09:52:52;1.60;;;0.60;;
10633;SDS011;5365;51.640;8.106;2023-06-14T09:55:52;1.80;;;0.55;;
10633;SDS011;5365;51.640;8.106;2023-06-14T09:58:57;1.67;;;0.70;;
10633;SDS011;5365;51.640;8.106;2023-06-14T10:01:58;1.25;;;0.70;;
10633;SDS011;5365;51.640;8.106;2023-06-14T10:05:03;2.70;;;0.60;;
10633;SDS011;5365;51.640;8.106;2023-06-14T10:08:09;1.75;;;0.60;;
10633;SDS011;5365;51.640;8.106;2023-06-14T10:11:11;1.08;;;0.73;;
10633;SDS011;5365;51.640;8.106;2023-06-14T10:14:12;2.03;;;1.00;;
10633;SDS011;5365;51.640;8.106;2023-06-14T10:20:41;1.77;;;0.95;;
10633;SDS011;5365;51.640;8.106;2023-06-14T10:23:45;1.33;;;0.50;;
10633;SDS011;5365;51.640;8.106;2023-06-14T10:26:50;0.95;;;0.52;;
10633;SDS011;5365;51.640;8.106;2023-06-14T10:33:06;2.85;;;0.80;;
10633;SDS011;5365;51.640;8.106;2023-06-14T10:36:08;1.20;;;0.63;;
10633;SDS011;5365;51.640;8.106;2023-06-14T10:39:15;1.33;;;0.80;;
10633;SDS011;5365;51.640;8.106;2023-06-14T10:42:16;1.38;;;0.70;;
10633;SDS011;5365;51.640;8.106;2023-06-14T10:45:16;1.75;;;0.70;;
10633;SDS011;5365;51.640;8.106;2023-06-14T10:48:29;1.53;;;0.80;;
10633;SDS011;5365;51.640;8.106;2023-06-14T10:51:29;1.73;;;0.55;;
10633;SDS011;5365;51.640;8.106;2023-06-14T10:54:30;1.55;;;1.00;;
10633;SDS011;5365;51.640;8.106;2023-06-14T10:57:30;1.37;;;0.70;;
10633;SDS011;5365;51.640;8.106;2023-06-14T11:00:33;2.05;;;0.80;;
10633;SDS011;5365;51.640;8.106;2023-06-14T11:03:51;2.15;;;1.30;;
10633;SDS011;5365;51.640;8.106;2023-06-14T11:06:54;1.73;;;0.70;;
10633;SDS011;5365;51.640;8.106;2023-06-14T11:13:09;2.58;;;1.20;;
10633;SDS011;5365;51.640;8.106;2023-06-14T11:16:10;2.03;;;1.02;;
10633;SDS011;5365;51.640;8.106;2023-06-14T11:19:10;1.40;;;0.85;;
10633;SDS011;5365;51.640;8.106;2023-06-14T11:22:10;0.93;;;0.50;;
10633;SDS011;5365;51.640;8.106;2023-06-14T11:25:11;1.67;;;0.83;;
10633;SDS011;5365;51.640;8.106;2023-06-14T11:28:12;1.92;;;0.93;;
10633;SDS011;5365;51.640;8.106;2023-06-14T11:31:13;1.47;;;0.73;;
10633;SDS011;5365;51.640;8.106;2023-06-14T11:34:13;0.90;;;0.70;;
10633;SDS011;5365;51.640;8.106;2023-06-14T11:37:13;1.65;;;0.85;;
10633;SDS011;5365;51.640;8.106;2023-06-14T11:40:14;2.23;;;0.90;;
10633;SDS011;5365;51.640;8.106;2023-06-14T11:43:14;1.73;;;1.20;;
10633;SDS011;5365;51.640;8.106;2023-06-14T11:46:14;1.60;;;0.88;;
10633;SDS011;5365;51.640;8.106;2023-06-14T11:49:22;1.52;;;0.93;;
10633;SDS011;5365;51.640;8.106;2023-06-14T11:52:22;1.67;;;0.90;;
10633;SDS011;5365;51.640;8.106;2023-06-14T11:55:23;2.00;;;1.08;;
10633;SDS011;5365;51.640;8.106;2023-06-14T11:58:24;1.30;;;0.80;;
10633;SDS011;5365;51.640;8.106;2023-06-14T12:01:25;1.95;;;1.00;;
10633;SDS011;5365;51.640;8.106;2023-06-14T12:04:29;2.10;;;1.15;;
10633;SDS011;5365;51.640;8.106;2023-06-14T12:07:29;2.10;;;1.13;;
10633;SDS011;5365;51.640;8.106;2023-06-14T12:10:31;1.48;;;0.88;;
10633;SDS011;5365;51.640;8.106;2023-06-14T12:13:39;1.30;;;0.93;;
10633;SDS011;5365;51.640;8.106;2023-06-14T12:16:40;1.40;;;0.75;;
10633;SDS011;5365;51.640;8.106;2023-06-14T12:19:41;1.73;;;1.17;;
10633;SDS011;5365;51.640;8.106;2023-06-14T12:22:52;2.42;;;1.33;;
10633;SDS011;5365;51.640;8.106;2023-06-14T12:25:56;1.50;;;1.20;;
10633;SDS011;5365;51.640;8.106;2023-06-14T12:28:59;2.13;;;1.13;;
10633;SDS011;5365;51.640;8.106;2023-06-14T12:31:59;1.70;;;1.17;;
10633;SDS011;5365;51.640;8.106;2023-06-14T12:35:00;1.93;;;1.10;;
10633;SDS011;5365;51.640;8.106;2023-06-14T12:38:00;3.53;;;0.90;;
10633;SDS011;5365;51.640;8.106;2023-06-14T12:41:00;1.30;;;0.85;;
10633;SDS011;5365;51.640;8.106;2023-06-14T12:44:00;1.20;;;1.00;;
10633;SDS011;5365;51.640;8.106;2023-06-14T12:47:04;1.92;;;1.13;;
10633;SDS011;5365;51.640;8.106;2023-06-14T12:50:04;1.10;;;1.00;;
10633;SDS011;5365;51.640;8.106;2023-06-14T12:53:05;1.80;;;1.25;;
10633;SDS011;5365;51.640;8.106;2023-06-14T12:56:05;1.40;;;1.00;;
10633;SDS011;5365;51.640;8.106;2023-06-14T12:59:05;1.67;;;1.30;;
10633;SDS011;5365;51.640;8.106;2023-06-14T13:02:13;3.13;;;1.23;;
10633;SDS011;5365;51.640;8.106;2023-06-14T13:05:13;1.83;;;1.33;;
10633;SDS011;5365;51.640;8.106;2023-06-14T13:08:13;2.00;;;0.97;;
10633;SDS011;5365;51.640;8.106;2023-06-14T13:11:13;1.87;;;1.00;;
10633;SDS011;5365;51.640;8.106;2023-06-14T13:14:14;2.53;;;1.10;;
10633;SDS011;5365;51.640;8.106;2023-06-14T13:17:15;2.22;;;1.40;;
10633;SDS011;5365;51.640;8.106;2023-06-14T13:20:15;1.40;;;1.07;;
10633;SDS011;5365;51.640;8.106;2023-06-14T13:23:16;1.40;;;0.90;;
10633;SDS011;5365;51.640;8.106;2023-06-14T13:26:16;1.70;;;0.98;;
10633;SDS011;5365;51.640;8.106;2023-06-14T13:29:18;1.60;;;1.13;;
10633;SDS011;5365;51.640;8.106;2023-06-14T13:32:20;2.00;;;0.90;;
10633;SDS011;5365;51.640;8.106;2023-06-14T13:35:20;1.77;;;1.20;;
10633;SDS011;5365;51.640;8.106;2023-06-14T13:38:20;1.70;;;1.27;;
10633;SDS011;5365;51.640;8.106;2023-06-14T13:41:21;2.37;;;1.40;;
10633;SDS011;5365;51.640;8.106;2023-06-14T13:44:21;1.13;;;1.00;;
10633;SDS011;5365;51.640;8.106;2023-06-14T13:47:21;1.60;;;1.00;;
10633;SDS011;5365;51.640;8.106;2023-06-14T13:50:21;1.30;;;1.07;;
10633;SDS011;5365;51.640;8.106;2023-06-14T13:53:21;1.33;;;1.00;;
10633;SDS011;5365;51.640;8.106;2023-06-14T13:56:22;2.13;;;1.00;;
10633;SDS011;5365;51.640;8.106;2023-06-14T13:59:24;4.20;;;1.38;;
10633;SDS011;5365;51.640;8.106;2023-06-14T14:02:24;1.37;;;0.80;;
10633;SDS011;5365;51.640;8.106;2023-06-14T14:05:24;1.83;;;1.00;;
10633;SDS011;5365;51.640;8.106;2023-06-14T14:08:28;1.63;;;1.00;;
10633;SDS011;5365;51.640;8.106;2023-06-14T14:11:29;1.48;;;0.90;;
10633;SDS011;5365;51.640;8.106;2023-06-14T14:14:33;1.83;;;1.20;;
10633;SDS011;5365;51.640;8.106;2023-06-14T14:17:33;2.07;;;1.00;;
10633;SDS011;5365;51.640;8.106;2023-06-14T14:20:33;1.30;;;0.80;;
10633;SDS011;5365;51.640;8.106;2023-06-14T14:23:34;1.37;;;1.00;;
10633;SDS011;5365;51.640;8.106;2023-06-14T14:26:34;1.40;;;1.05;;
10633;SDS011;5365;51.640;8.106;2023-06-14T14:29:35;1.93;;;1.17;;
10633;SDS011;5365;51.640;8.106;2023-06-14T14:32:35;1.27;;;0.80;;
10633;SDS011;5365;51.640;8.106;2023-06-14T14:35:35;1.43;;;0.70;;
10633;SDS011;5365;51.640;8.106;2023-06-14T14:38:36;1.63;;;0.70;;
10633;SDS011;5365;51.640;8.106;2023-06-14T14:41:36;2.00;;;1.17;;
10633;SDS011;5365;51.640;8.106;2023-06-14T14:44:38;2.22;;;1.10;;
10633;SDS011;5365;51.640;8.106;2023-06-14T14:47:38;1.30;;;0.90;;
10633;SDS011;5365;51.640;8.106;2023-06-14T14:50:38;1.30;;;0.83;;
10633;SDS011;5365;51.640;8.106;2023-06-14T14:53:38;1.37;;;0.73;;
10633;SDS011;5365;51.640;8.106;2023-06-14T14:56:38;1.85;;;0.95;;
10633;SDS011;5365;51.640;8.106;2023-06-14T14:59:39;1.60;;;1.07;;
10633;SDS011;5365;51.640;8.106;2023-06-14T15:02:39;1.80;;;0.70;;
10633;SDS011;5365;51.640;8.106;2023-06-14T15:05:39;1.50;;;1.00;;
10633;SDS011;5365;51.640;8.106;2023-06-14T15:08:40;2.03;;;0.98;;
10633;SDS011;5365;51.640;8.106;2023-06-14T15:11:40;2.00;;;1.03;;
10633;SDS011;5365;51.640;8.106;2023-06-14T15:14:40;1.40;;;0.70;;
10633;SDS011;5365;51.640;8.106;2023-06-14T15:17:40;2.20;;;0.80;;
10633;SDS011;5365;51.640;8.106;2023-06-14T15:20:40;2.23;;;0.90;;
10633;SDS011;5365;51.640;8.106;2023-06-14T15:23:41;1.77;;;1.05;;
10633;SDS011;5365;51.640;8.106;2023-06-14T15:26:41;1.80;;;0.83;;
10633;SDS011;5365;51.640;8.106;2023-06-14T15:29:42;2.47;;;0.70;;
10633;SDS011;5365;51.640;8.106;2023-06-14T15:32:42;1.45;;;0.88;;
10633;SDS011;5365;51.640;8.106;2023-06-14T15:35:42;2.13;;;0.83;;
10633;SDS011;5365;51.640;8.106;2023-06-14T15:38:43;1.30;;;0.90;;
10633;SDS011;5365;51.640;8.106;2023-06-14T15:41:43;1.80;;;0.60;;
10633;SDS011;5365;51.640;8.106;2023-06-14T15:44:43;1.00;;;0.73;;
10633;SDS011;5365;51.640;8.106;2023-06-14T15:47:44;1.93;;;0.83;;
10633;SDS011;5365;51.640;8.106;2023-06-14T15:50:44;4.37;;;0.70;;
10633;SDS011;5365;51.640;8.106;2023-06-14T15:53:45;1.17;;;0.50;;
10633;SDS011;5365;51.640;8.106;2023-06-14T15:56:45;1.33;;;0.60;;
10633;SDS011;5365;51.640;8.106;2023-06-14T15:59:45;2.10;;;1.53;;
10633;SDS011;5365;51.640;8.106;2023-06-14T16:02:46;1.90;;;1.13;;
10633;SDS011;5365;51.640;8.106;2023-06-14T16:05:46;1.47;;;0.63;;
10633;SDS011;5365;51.640;8.106;2023-06-14T16:08:46;1.50;;;0.70;;
10633;SDS011;5365;51.640;8.106;2023-06-14T16:11:46;1.60;;;0.70;;
10633;SDS011;5365;51.640;8.106;2023-06-14T16:14:47;1.87;;;0.53;;
10633;SDS011;5365;51.640;8.106;2023-06-14T16:17:47;1.25;;;0.65;;
10633;SDS011;5365;51.640;8.106;2023-06-14T16:20:47;2.20;;;0.83;;
10633;SDS011;5365;51.640;8.106;2023-06-14T16:23:47;1.87;;;0.90;;
10633;SDS011;5365;51.640;8.106;2023-06-14T16:26:48;1.00;;;0.70;;
10633;SDS011;5365;51.640;8.106;2023-06-14T16:29:48;1.57;;;0.60;;
10633;SDS011;5365;51.640;8.106;2023-06-14T16:32:48;1.63;;;0.70;;
10633;SDS011;5365;51.640;8.106;2023-06-14T16:35:48;1.30;;;0.80;;
10633;SDS011;5365;51.640;8.106;2023-06-14T16:38:49;1.13;;;0.63;;
10633;SDS011;5365;51.640;8.106;2023-06-14T16:41:49;2.03;;;0.88;;
10633;SDS011;5365;51.640;8.106;2023-06-14T16:44:49;0.88;;;0.52;;
10633;SDS011;5365;51.640;8.106;2023-06-14T16:47:50;1.02;;;0.60;;
10633;SDS011;5365;51.640;8.106;2023-06-14T16:50:50;2.37;;;0.73;;
10633;SDS011;5365;51.640;8.106;2023-06-14T16:53:51;1.87;;;1.07;;
10633;SDS011;5365;51.640;8.106;2023-06-14T16:56:51;1.65;;;0.60;;
10633;SDS011;5365;51.640;8.106;2023-06-14T16:59:52;2.67;;;0.60;;
10633;SDS011;5365;51.640;8.106;2023-06-14T17:02:52;2.43;;;0.90;;
10633;SDS011;5365;51.640;8.106;2023-06-14T17:05:54;2.08;;;0.55;;
10633;SDS011;5365;51.640;8.106;2023-06-14T17:08:55;1.23;;;0.50;;
10633;SDS011;5365;51.640;8.106;2023-06-14T17:11:55;1.60;;;0.70;;
10633;SDS011;5365;51.640;8.106;2023-06-14T17:14:56;0.83;;;0.60;;
10633;SDS011;5365;51.640;8.106;2023-06-14T17:17:56;1.00;;;0.45;;
10633;SDS011;5365;51.640;8.106;2023-06-14T17:20:56;1.02;;;0.60;;
10633;SDS011;5365;51.640;8.106;2023-06-14T17:23:56;2.13;;;0.60;;
10633;SDS011;5365;51.640;8.106;2023-06-14T17:26:57;1.50;;;0.70;;
10633;SDS011;5365;51.640;8.106;2023-06-14T17:29:57;1.33;;;0.50;;
10633;SDS011;5365;51.640;8.106;2023-06-14T17:32:57;1.75;;;0.60;;
10633;SDS011;5365;51.640;8.106;2023-06-14T17:35:57;1.53;;;0.93;;
10633;SDS011;5365;51.640;8.106;2023-06-14T17:38:58;1.33;;;0.70;;
10633;SDS011;5365;51.640;8.106;2023-06-14T17:41:58;1.30;;;0.70;;
10633;SDS011;5365;51.640;8.106;2023-06-14T17:44:58;1.10;;;0.57;;
10633;SDS011;5365;51.640;8.106;2023-06-14T17:47:58;2.43;;;0.73;;
10633;SDS011;5365;51.640;8.106;2023-06-14T17:51:01;1.80;;;0.57;;
10633;SDS011;5365;51.640;8.106;2023-06-14T17:54:01;1.83;;;0.93;;
10633;SDS011;5365;51.640;8.106;2023-06-14T17:57:01;3.33;;;0.97;;
10633;SDS011;5365;51.640;8.106;2023-06-14T18:00:02;1.57;;;0.70;;
10633;SDS011;5365;51.640;8.106;2023-06-14T18:03:02;1.85;;;0.60;;
10633;SDS011;5365;51.640;8.106;2023-06-14T18:06:03;1.90;;;0.90;;
10633;SDS011;5365;51.640;8.106;2023-06-14T18:09:04;1.77;;;0.95;;
10633;SDS011;5365;51.640;8.106;2023-06-14T18:12:05;2.15;;;0.60;;
10633;SDS011;5365;51.640;8.106;2023-06-14T18:15:05;1.58;;;0.95;;
10633;SDS011;5365;51.640;8.106;2023-06-14T18:18:06;1.90;;;0.65;;
10633;SDS011;5365;51.640;8.106;2023-06-14T18:21:06;2.53;;;1.10;;
10633;SDS011;5365;51.640;8.106;2023-06-14T18:24:06;1.57;;;1.00;;
10633;SDS011;5365;51.640;8.106;2023-06-14T18:27:06;1.80;;;0.90;;
10633;SDS011;5365;51.640;8.106;2023-06-14T18:30:09;2.67;;;0.93;;
10633;SDS011;5365;51.640;8.106;2023-06-14T18:33:09;1.75;;;0.90;;
10633;SDS011;5365;51.640;8.106;2023-06-14T18:36:09;1.20;;;0.70;;